Terminal Aerodrome Forecast
Issued by NWS Wilmington, NC

Home | Current Version | Previous Version | Text Only | Print | Product List | Glossary On
Versions: 1 2 3 4 5 6 7 8 9 10 11 12 13 14 15 16 17 18
000
FTUS42 KILM 180521
TAFFLO
TAF
KFLO 180521Z 1806/1906 21005KT P6SM SCT050
     FM181800 23009KT P6SM VCTS SCT040CB
     FM182200 23009KT P6SM SCT040=

USA.gov is the U.S. government's official web portal to all federal, state and local government web resources and services.